sensor_id;sensor_type;location;lat;lon;timestamp;temperature;humidity
34542;DHT22;20784;51.332;12.410;2022-10-16T00:01:41;16.80;99.90
34542;DHT22;20784;51.332;12.410;2022-10-16T00:04:08;16.60;99.90
34542;DHT22;20784;51.332;12.410;2022-10-16T00:06:34;16.70;99.90
34542;DHT22;20784;51.332;12.410;2022-10-16T00:09:06;16.70;99.90
34542;DHT22;20784;51.332;12.410;2022-10-16T00:11:34;16.70;99.90
34542;DHT22;20784;51.332;12.410;2022-10-16T00:14:03;16.70;99.90
34542;DHT22;20784;51.332;12.410;2022-10-16T00:16:30;16.70;99.90
34542;DHT22;20784;51.332;12.410;2022-10-16T00:18:56;16.70;99.90
34542;DHT22;20784;51.332;12.410;2022-10-16T00:21:24;16.80;99.90
34542;DHT22;20784;51.332;12.410;2022-10-16T00:23:54;16.70;99.90
34542;DHT22;20784;51.332;12.410;2022-10-16T00:26:21;16.70;99.90
34542;DHT22;20784;51.332;12.410;2022-10-16T00:28:52;16.70;99.90
34542;DHT22;20784;51.332;12.410;2022-10-16T00:31:20;16.70;99.90
34542;DHT22;20784;51.332;12.410;2022-10-16T00:33:49;16.60;99.90
34542;DHT22;20784;51.332;12.410;2022-10-16T00:36:19;16.80;99.90
34542;DHT22;20784;51.332;12.410;2022-10-16T00:38:45;16.80;99.90
34542;DHT22;20784;51.332;12.410;2022-10-16T00:41:14;16.80;99.90
34542;DHT22;20784;51.332;12.410;2022-10-16T00:43:57;16.90;99.90
34542;DHT22;20784;51.332;12.410;2022-10-16T00:46:28;16.90;99.90
34542;DHT22;20784;51.332;12.410;2022-10-16T00:49:06;16.90;99.90
34542;DHT22;20784;51.332;12.410;2022-10-16T00:51:45;16.90;99.90
34542;DHT22;20784;51.332;12.410;2022-10-16T00:54:23;16.90;99.90
34542;DHT22;20784;51.332;12.410;2022-10-16T00:56:49;16.90;99.90
34542;DHT22;20784;51.332;12.410;2022-10-16T00:59:22;16.90;99.90
34542;DHT22;20784;51.332;12.410;2022-10-16T01:01:51;16.90;99.90
34542;DHT22;20784;51.332;12.410;2022-10-16T01:04:17;17.00;99.90
34542;DHT22;20784;51.332;12.410;2022-10-16T01:07:06;16.90;99.90
34542;DHT22;20784;51.332;12.410;2022-10-16T01:09:45;16.90;99.90
34542;DHT22;20784;51.332;12.410;2022-10-16T01:15:10;17.00;99.90
34542;DHT22;20784;51.332;12.410;2022-10-16T01:17:41;16.90;99.90
34542;DHT22;20784;51.332;12.410;2022-10-16T01:20:25;17.00;99.90
34542;DHT22;20784;51.332;12.410;2022-10-16T01:28:41;17.00;99.90
34542;DHT22;20784;51.332;12.410;2022-10-16T01:31:09;17.00;99.90
34542;DHT22;20784;51.332;12.410;2022-10-16T01:33:44;17.00;99.90
34542;DHT22;20784;51.332;12.410;2022-10-16T01:36:18;17.00;99.90
34542;DHT22;20784;51.332;12.410;2022-10-16T01:38:47;17.00;99.90
34542;DHT22;20784;51.332;12.410;2022-10-16T01:41:24;16.90;99.90
34542;DHT22;20784;51.332;12.410;2022-10-16T01:43:59;16.80;99.90
34542;DHT22;20784;51.332;12.410;2022-10-16T01:46:28;16.80;99.90
34542;DHT22;20784;51.332;12.410;2022-10-16T01:48:55;16.80;99.90
34542;DHT22;20784;51.332;12.410;2022-10-16T01:51:22;16.80;99.90
34542;DHT22;20784;51.332;12.410;2022-10-16T01:53:52;16.80;99.90
34542;DHT22;20784;51.332;12.410;2022-10-16T01:56:18;16.70;99.90
34542;DHT22;20784;51.332;12.410;2022-10-16T01:58:54;16.70;99.90
34542;DHT22;20784;51.332;12.410;2022-10-16T02:01:26;16.70;99.90
34542;DHT22;20784;51.332;12.410;2022-10-16T02:03:57;16.70;99.90
34542;DHT22;20784;51.332;12.410;2022-10-16T02:06:24;16.70;99.90
34542;DHT22;20784;51.332;12.410;2022-10-16T02:08:51;16.60;99.90
34542;DHT22;20784;51.332;12.410;2022-10-16T02:11:19;16.70;99.90
34542;DHT22;20784;51.332;12.410;2022-10-16T02:13:48;16.60;99.90
34542;DHT22;20784;51.332;12.410;2022-10-16T02:16:16;16.60;99.90
34542;DHT22;20784;51.332;12.410;2022-10-16T02:18:43;16.60;99.90
34542;DHT22;20784;51.332;12.410;2022-10-16T02:21:26;16.60;99.90
34542;DHT22;20784;51.332;12.410;2022-10-16T02:26:53;16.50;99.90
34542;DHT22;20784;51.332;12.410;2022-10-16T02:29:26;16.50;99.90
34542;DHT22;20784;51.332;12.410;2022-10-16T02:32:01;16.60;99.90
34542;DHT22;20784;51.332;12.410;2022-10-16T02:34:30;16.50;99.90
34542;DHT22;20784;51.332;12.410;2022-10-16T02:37:02;16.50;99.90
34542;DHT22;20784;51.332;12.410;2022-10-16T02:39:29;16.50;99.90
34542;DHT22;20784;51.332;12.410;2022-10-16T02:41:55;16.50;99.90
34542;DHT22;20784;51.332;12.410;2022-10-16T02:44:21;16.50;99.90
34542;DHT22;20784;51.332;12.410;2022-10-16T02:46:46;16.50;99.90
34542;DHT22;20784;51.332;12.410;2022-10-16T02:49:12;16.50;99.90
34542;DHT22;20784;51.332;12.410;2022-10-16T02:51:38;16.50;99.90
34542;DHT22;20784;51.332;12.410;2022-10-16T02:54:03;16.50;99.90
34542;DHT22;20784;51.332;12.410;2022-10-16T02:56:34;16.50;99.90
34542;DHT22;20784;51.332;12.410;2022-10-16T02:59:00;16.50;99.90
34542;DHT22;20784;51.332;12.410;2022-10-16T03:01:25;16.50;99.90
34542;DHT22;20784;51.332;12.410;2022-10-16T03:03:51;16.40;99.90
34542;DHT22;20784;51.332;12.410;2022-10-16T03:06:17;16.30;99.90
34542;DHT22;20784;51.332;12.410;2022-10-16T03:08:43;16.30;99.90
34542;DHT22;20784;51.332;12.410;2022-10-16T03:11:08;16.40;99.90
34542;DHT22;20784;51.332;12.410;2022-10-16T03:13:34;16.40;99.90
34542;DHT22;20784;51.332;12.410;2022-10-16T03:16:00;16.40;99.90
34542;DHT22;20784;51.332;12.410;2022-10-16T03:18:25;16.30;99.90
34542;DHT22;20784;51.332;12.410;2022-10-16T03:20:54;16.30;99.90
34542;DHT22;20784;51.332;12.410;2022-10-16T03:23:19;16.40;99.90
34542;DHT22;20784;51.332;12.410;2022-10-16T03:25:45;16.30;99.90
34542;DHT22;20784;51.332;12.410;2022-10-16T03:28:10;16.20;99.90
34542;DHT22;20784;51.332;12.410;2022-10-16T03:30:36;16.30;99.90
34542;DHT22;20784;51.332;12.410;2022-10-16T03:33:05;16.30;99.90
34542;DHT22;20784;51.332;12.410;2022-10-16T03:35:31;16.30;99.90
34542;DHT22;20784;51.332;12.410;2022-10-16T03:37:57;16.30;99.90
34542;DHT22;20784;51.332;12.410;2022-10-16T03:40:22;16.30;99.90
34542;DHT22;20784;51.332;12.410;2022-10-16T03:42:48;16.30;99.90
34542;DHT22;20784;51.332;12.410;2022-10-16T03:45:14;16.30;99.90
34542;DHT22;20784;51.332;12.410;2022-10-16T03:47:40;16.30;99.90
34542;DHT22;20784;51.332;12.410;2022-10-16T03:50:06;16.40;99.90
34542;DHT22;20784;51.332;12.410;2022-10-16T03:52:32;16.40;99.90
34542;DHT22;20784;51.332;12.410;2022-10-16T03:54:58;16.30;99.90
34542;DHT22;20784;51.332;12.410;2022-10-16T03:57:24;16.30;99.90
34542;DHT22;20784;51.332;12.410;2022-10-16T03:59:50;16.30;99.90
34542;DHT22;20784;51.332;12.410;2022-10-16T04:02:16;16.30;99.90
34542;DHT22;20784;51.332;12.410;2022-10-16T04:04:46;16.30;99.90
34542;DHT22;20784;51.332;12.410;2022-10-16T04:07:12;16.30;99.90
34542;DHT22;20784;51.332;12.410;2022-10-16T04:09:37;16.30;99.90
34542;DHT22;20784;51.332;12.410;2022-10-16T04:12:03;16.30;99.90
34542;DHT22;20784;51.332;12.410;2022-10-16T04:14:28;16.30;99.90
34542;DHT22;20784;51.332;12.410;2022-10-16T04:16:54;16.30;99.90
34542;DHT22;20784;51.332;12.410;2022-10-16T04:19:20;16.20;99.90
34542;DHT22;20784;51.332;12.410;2022-10-16T04:21:50;16.20;99.90
34542;DHT22;20784;51.332;12.410;2022-10-16T04:24:16;16.20;99.90
34542;DHT22;20784;51.332;12.410;2022-10-16T04:26:41;16.20;99.90
34542;DHT22;20784;51.332;12.410;2022-10-16T04:29:07;16.20;99.90
34542;DHT22;20784;51.332;12.410;2022-10-16T04:31:33;16.20;99.90
34542;DHT22;20784;51.332;12.410;2022-10-16T04:34:01;16.20;99.90
34542;DHT22;20784;51.332;12.410;2022-10-16T04:36:27;16.20;99.90
34542;DHT22;20784;51.332;12.410;2022-10-16T04:38:52;16.20;99.90
34542;DHT22;20784;51.332;12.410;2022-10-16T04:41:18;16.20;99.90
34542;DHT22;20784;51.332;12.410;2022-10-16T04:43:44;16.20;99.90
34542;DHT22;20784;51.332;12.410;2022-10-16T04:46:10;16.20;99.90
34542;DHT22;20784;51.332;12.410;2022-10-16T04:48:36;16.20;99.90
34542;DHT22;20784;51.332;12.410;2022-10-16T04:51:01;16.20;99.90
34542;DHT22;20784;51.332;12.410;2022-10-16T04:53:27;16.10;99.90
34542;DHT22;20784;51.332;12.410;2022-10-16T04:55:53;16.10;99.90
34542;DHT22;20784;51.332;12.410;2022-10-16T04:58:19;16.10;99.90
34542;DHT22;20784;51.332;12.410;2022-10-16T05:00:45;16.00;99.90
34542;DHT22;20784;51.332;12.410;2022-10-16T05:03:12;16.00;99.90
34542;DHT22;20784;51.332;12.410;2022-10-16T05:05:45;16.00;99.90
34542;DHT22;20784;51.332;12.410;2022-10-16T05:08:15;16.00;99.90
34542;DHT22;20784;51.332;12.410;2022-10-16T05:10:42;16.00;99.90
34542;DHT22;20784;51.332;12.410;2022-10-16T05:13:07;16.00;99.90
34542;DHT22;20784;51.332;12.410;2022-10-16T05:15:33;16.00;99.90
34542;DHT22;20784;51.332;12.410;2022-10-16T05:17:59;16.00;99.90
34542;DHT22;20784;51.332;12.410;2022-10-16T05:20:25;16.00;99.90
34542;DHT22;20784;51.332;12.410;2022-10-16T05:22:51;15.90;99.90
34542;DHT22;20784;51.332;12.410;2022-10-16T05:25:16;15.90;99.90
34542;DHT22;20784;51.332;12.410;2022-10-16T05:27:46;15.90;99.90
34542;DHT22;20784;51.332;12.410;2022-10-16T05:30:16;15.90;99.90
34542;DHT22;20784;51.332;12.410;2022-10-16T05:32:49;16.00;99.90
34542;DHT22;20784;51.332;12.410;2022-10-16T05:35:16;16.00;99.90
34542;DHT22;20784;51.332;12.410;2022-10-16T05:37:42;16.00;99.90
34542;DHT22;20784;51.332;12.410;2022-10-16T05:40:10;15.90;99.90
34542;DHT22;20784;51.332;12.410;2022-10-16T05:42:39;15.90;99.90
34542;DHT22;20784;51.332;12.410;2022-10-16T05:45:07;15.90;99.90
34542;DHT22;20784;51.332;12.410;2022-10-16T05:47:33;16.00;99.90
34542;DHT22;20784;51.332;12.410;2022-10-16T05:49:59;16.00;99.90
34542;DHT22;20784;51.332;12.410;2022-10-16T05:52:26;15.90;99.90
34542;DHT22;20784;51.332;12.410;2022-10-16T05:54:54;16.00;99.90
34542;DHT22;20784;51.332;12.410;2022-10-16T05:57:19;16.00;99.90
34542;DHT22;20784;51.332;12.410;2022-10-16T05:59:45;16.10;99.90
34542;DHT22;20784;51.332;12.410;2022-10-16T06:02:14;16.10;99.90
34542;DHT22;20784;51.332;12.410;2022-10-16T06:04:42;16.10;99.90
34542;DHT22;20784;51.332;12.410;2022-10-16T06:07:15;16.10;99.90
34542;DHT22;20784;51.332;12.410;2022-10-16T06:09:41;16.00;99.90
34542;DHT22;20784;51.332;12.410;2022-10-16T06:12:06;16.10;99.90
34542;DHT22;20784;51.332;12.410;2022-10-16T06:14:32;16.20;99.90
34542;DHT22;20784;51.332;12.410;2022-10-16T06:16:58;16.10;99.90
34542;DHT22;20784;51.332;12.410;2022-10-16T06:19:23;16.20;99.90
34542;DHT22;20784;51.332;12.410;2022-10-16T06:21:49;16.30;99.90
34542;DHT22;20784;51.332;12.410;2022-10-16T06:24:15;16.30;99.90
34542;DHT22;20784;51.332;12.410;2022-10-16T06:26:40;16.40;99.90
34542;DHT22;20784;51.332;12.410;2022-10-16T06:29:06;16.30;99.90
34542;DHT22;20784;51.332;12.410;2022-10-16T06:31:31;16.40;99.90
34542;DHT22;20784;51.332;12.410;2022-10-16T06:33:59;16.40;99.90
34542;DHT22;20784;51.332;12.410;2022-10-16T06:36:27;16.40;99.90
34542;DHT22;20784;51.332;12.410;2022-10-16T06:38:53;16.60;99.90
34542;DHT22;20784;51.332;12.410;2022-10-16T06:41:25;16.70;99.90
34542;DHT22;20784;51.332;12.410;2022-10-16T06:43:51;16.90;99.90
34542;DHT22;20784;51.332;12.410;2022-10-16T06:46:35;16.90;99.90
34542;DHT22;20784;51.332;12.410;2022-10-16T06:49:01;16.80;99.90
34542;DHT22;20784;51.332;12.410;2022-10-16T06:51:26;16.90;99.90
34542;DHT22;20784;51.332;12.410;2022-10-16T06:53:54;16.80;99.90
34542;DHT22;20784;51.332;12.410;2022-10-16T06:56:24;16.80;99.90
34542;DHT22;20784;51.332;12.410;2022-10-16T06:58:53;16.80;99.90
34542;DHT22;20784;51.332;12.410;2022-10-16T07:01:21;16.80;99.90
34542;DHT22;20784;51.332;12.410;2022-10-16T07:03:50;16.80;99.90
34542;DHT22;20784;51.332;12.410;2022-10-16T07:06:19;16.80;99.90
34542;DHT22;20784;51.332;12.410;2022-10-16T07:08:49;16.80;99.90
34542;DHT22;20784;51.332;12.410;2022-10-16T07:11:22;16.80;99.90
34542;DHT22;20784;51.332;12.410;2022-10-16T07:14:16;16.80;99.90
34542;DHT22;20784;51.332;12.410;2022-10-16T07:16:42;16.80;99.90
34542;DHT22;20784;51.332;12.410;2022-10-16T07:19:11;16.70;99.90
34542;DHT22;20784;51.332;12.410;2022-10-16T07:21:39;16.80;99.90
34542;DHT22;20784;51.332;12.410;2022-10-16T07:24:20;16.80;99.90
34542;DHT22;20784;51.332;12.410;2022-10-16T07:26:46;16.80;99.90
34542;DHT22;20784;51.332;12.410;2022-10-16T07:29:15;17.00;99.90
34542;DHT22;20784;51.332;12.410;2022-10-16T07:31:45;17.10;99.90
34542;DHT22;20784;51.332;12.410;2022-10-16T07:34:35;17.20;99.90
34542;DHT22;20784;51.332;12.410;2022-10-16T07:37:10;17.30;99.90
34542;DHT22;20784;51.332;12.410;2022-10-16T07:40:16;17.30;99.90
34542;DHT22;20784;51.332;12.410;2022-10-16T07:42:52;17.40;99.90
34542;DHT22;20784;51.332;12.410;2022-10-16T07:45:21;17.40;99.90
34542;DHT22;20784;51.332;12.410;2022-10-16T07:47:49;17.40;99.90
34542;DHT22;20784;51.332;12.410;2022-10-16T07:50:18;17.50;99.90
34542;DHT22;20784;51.332;12.410;2022-10-16T07:52:45;17.80;99.90
34542;DHT22;20784;51.332;12.410;2022-10-16T07:55:24;18.00;99.90
34542;DHT22;20784;51.332;12.410;2022-10-16T07:57:50;18.20;99.90
34542;DHT22;20784;51.332;12.410;2022-10-16T08:00:16;18.50;99.90
34542;DHT22;20784;51.332;12.410;2022-10-16T08:02:45;18.70;99.90
34542;DHT22;20784;51.332;12.410;2022-10-16T08:05:13;19.00;99.90
34542;DHT22;20784;51.332;12.410;2022-10-16T08:07:39;19.30;99.90
34542;DHT22;20784;51.332;12.410;2022-10-16T08:10:05;20.20;99.90
34542;DHT22;20784;51.332;12.410;2022-10-16T08:12:34;21.10;99.90
34542;DHT22;20784;51.332;12.410;2022-10-16T08:15:03;22.10;99.90
34542;DHT22;20784;51.332;12.410;2022-10-16T08:17:28;22.70;99.90
34542;DHT22;20784;51.332;12.410;2022-10-16T08:19:56;22.80;99.90
34542;DHT22;20784;51.332;12.410;2022-10-16T08:22:25;23.40;99.90
34542;DHT22;20784;51.332;12.410;2022-10-16T08:24:51;23.00;99.90
34542;DHT22;20784;51.332;12.410;2022-10-16T08:27:16;22.50;99.90
34542;DHT22;20784;51.332;12.410;2022-10-16T08:29:45;22.30;99.90
34542;DHT22;20784;51.332;12.410;2022-10-16T08:32:10;22.00;99.90
34542;DHT22;20784;51.332;12.410;2022-10-16T08:34:36;21.80;99.90
34542;DHT22;20784;51.332;12.410;2022-10-16T08:37:05;21.60;99.90
34542;DHT22;20784;51.332;12.410;2022-10-16T08:39:32;21.30;99.90
34542;DHT22;20784;51.332;12.410;2022-10-16T08:42:11;20.90;99.90
34542;DHT22;20784;51.332;12.410;2022-10-16T08:47:26;20.80;99.90
34542;DHT22;20784;51.332;12.410;2022-10-16T08:50:00;20.80;99.90
34542;DHT22;20784;51.332;12.410;2022-10-16T08:52:34;20.70;99.90
34542;DHT22;20784;51.332;12.410;2022-10-16T08:55:01;20.60;99.90
34542;DHT22;20784;51.332;12.410;2022-10-16T08:57:27;20.60;99.90
34542;DHT22;20784;51.332;12.410;2022-10-16T08:59:54;21.10;99.90
34542;DHT22;20784;51.332;12.410;2022-10-16T09:05:08;21.70;99.90
34542;DHT22;20784;51.332;12.410;2022-10-16T09:13:41;21.00;99.90
34542;DHT22;20784;51.332;12.410;2022-10-16T09:21:43;21.40;99.90
34542;DHT22;20784;51.332;12.410;2022-10-16T09:24:18;21.60;99.90
34542;DHT22;20784;51.332;12.410;2022-10-16T09:26:44;21.60;99.90
34542;DHT22;20784;51.332;12.410;2022-10-16T09:29:18;21.60;99.90
34542;DHT22;20784;51.332;12.410;2022-10-16T09:31:47;21.40;99.90
34542;DHT22;20784;51.332;12.410;2022-10-16T09:34:33;21.30;99.90
34542;DHT22;20784;51.332;12.410;2022-10-16T09:37:01;21.20;99.90
34542;DHT22;20784;51.332;12.410;2022-10-16T09:39:41;21.20;99.90
34542;DHT22;20784;51.332;12.410;2022-10-16T09:42:13;21.20;99.90
34542;DHT22;20784;51.332;12.410;2022-10-16T09:44:40;21.30;99.90
34542;DHT22;20784;51.332;12.410;2022-10-16T09:49:39;21.50;99.90
34542;DHT22;20784;51.332;12.410;2022-10-16T09:52:09;22.00;99.90
34542;DHT22;20784;51.332;12.410;2022-10-16T09:54:36;22.10;99.90
34542;DHT22;20784;51.332;12.410;2022-10-16T09:57:16;22.00;99.90
34542;DHT22;20784;51.332;12.410;2022-10-16T09:59:54;21.90;99.90
34542;DHT22;20784;51.332;12.410;2022-10-16T10:02:34;21.80;99.90
34542;DHT22;20784;51.332;12.410;2022-10-16T10:05:00;21.60;99.90
34542;DHT22;20784;51.332;12.410;2022-10-16T10:10:48;21.30;99.90
34542;DHT22;20784;51.332;12.410;2022-10-16T10:13:43;22.20;99.90
34542;DHT22;20784;51.332;12.410;2022-10-16T10:19:29;23.80;99.90
34542;DHT22;20784;51.332;12.410;2022-10-16T10:22:22;24.00;99.90
34542;DHT22;20784;51.332;12.410;2022-10-16T10:33:31;22.50;99.90
34542;DHT22;20784;51.332;12.410;2022-10-16T10:36:34;22.40;99.90
34542;DHT22;20784;51.332;12.410;2022-10-16T10:39:25;22.30;99.90
34542;DHT22;20784;51.332;12.410;2022-10-16T10:45:27;21.70;99.90
34542;DHT22;20784;51.332;12.410;2022-10-16T10:55:03;21.30;99.90
34542;DHT22;20784;51.332;12.410;2022-10-16T10:57:36;21.20;99.90
34542;DHT22;20784;51.332;12.410;2022-10-16T11:00:42;21.10;99.90
34542;DHT22;20784;51.332;12.410;2022-10-16T11:03:51;21.10;99.90
34542;DHT22;20784;51.332;12.410;2022-10-16T11:09:32;21.00;99.90
34542;DHT22;20784;51.332;12.410;2022-10-16T11:12:31;20.90;99.90
34542;DHT22;20784;51.332;12.410;2022-10-16T11:15:23;20.90;99.90
34542;DHT22;20784;51.332;12.410;2022-10-16T11:18:16;20.90;99.90
34542;DHT22;20784;51.332;12.410;2022-10-16T11:21:00;20.80;99.90
34542;DHT22;20784;51.332;12.410;2022-10-16T11:26:32;20.80;99.90
34542;DHT22;20784;51.332;12.410;2022-10-16T11:29:05;20.80;99.90
34542;DHT22;20784;51.332;12.410;2022-10-16T11:32:29;21.00;99.90
34542;DHT22;20784;51.332;12.410;2022-10-16T11:34:59;21.00;99.90
34542;DHT22;20784;51.332;12.410;2022-10-16T11:37:48;20.90;99.90
34542;DHT22;20784;51.332;12.410;2022-10-16T11:40:47;20.90;99.90
34542;DHT22;20784;51.332;12.410;2022-10-16T11:43:29;21.00;99.90
34542;DHT22;20784;51.332;12.410;2022-10-16T11:52:39;21.20;99.90
34542;DHT22;20784;51.332;12.410;2022-10-16T11:55:28;21.30;99.90
34542;DHT22;20784;51.332;12.410;2022-10-16T12:06:46;21.40;99.90
34542;DHT22;20784;51.332;12.410;2022-10-16T12:09:26;21.40;99.90
34542;DHT22;20784;51.332;12.410;2022-10-16T12:12:36;21.50;99.90
34542;DHT22;20784;51.332;12.410;2022-10-16T12:15:24;21.50;99.90
34542;DHT22;20784;51.332;12.410;2022-10-16T12:18:14;21.40;99.90
34542;DHT22;20784;51.332;12.410;2022-10-16T12:20:53;21.30;99.90
34542;DHT22;20784;51.332;12.410;2022-10-16T12:23:52;21.30;99.90
34542;DHT22;20784;51.332;12.410;2022-10-16T12:26:31;21.30;99.90
34542;DHT22;20784;51.332;12.410;2022-10-16T12:29:37;21.40;99.90
34542;DHT22;20784;51.332;12.410;2022-10-16T12:32:32;21.30;99.90
34542;DHT22;20784;51.332;12.410;2022-10-16T12:35:42;21.20;99.90
34542;DHT22;20784;51.332;12.410;2022-10-16T12:38:30;21.20;99.90
34542;DHT22;20784;51.332;12.410;2022-10-16T12:41:03;21.30;99.90
34542;DHT22;20784;51.332;12.410;2022-10-16T12:46:23;21.70;99.90
34542;DHT22;20784;51.332;12.410;2022-10-16T12:48:52;22.10;99.90
34542;DHT22;20784;51.332;12.410;2022-10-16T12:51:25;22.20;99.90
34542;DHT22;20784;51.332;12.410;2022-10-16T13:05:23;21.50;99.90
34542;DHT22;20784;51.332;12.410;2022-10-16T13:08:17;21.40;99.90
34542;DHT22;20784;51.332;12.410;2022-10-16T13:11:17;21.40;99.90
34542;DHT22;20784;51.332;12.410;2022-10-16T13:22:03;21.50;99.90
34542;DHT22;20784;51.332;12.410;2022-10-16T13:30:29;22.00;99.90
34542;DHT22;20784;51.332;12.410;2022-10-16T13:33:04;22.20;99.90
34542;DHT22;20784;51.332;12.410;2022-10-16T13:35:34;22.50;99.90
34542;DHT22;20784;51.332;12.410;2022-10-16T13:38:21;22.60;99.90
34542;DHT22;20784;51.332;12.410;2022-10-16T13:47:01;22.80;99.90
34542;DHT22;20784;51.332;12.410;2022-10-16T13:49:27;22.70;99.90
34542;DHT22;20784;51.332;12.410;2022-10-16T13:52:01;22.80;99.90
34542;DHT22;20784;51.332;12.410;2022-10-16T13:57:46;22.80;99.90
34542;DHT22;20784;51.332;12.410;2022-10-16T14:00:53;22.60;99.90
34542;DHT22;20784;51.332;12.410;2022-10-16T14:03:22;22.50;99.90
34542;DHT22;20784;51.332;12.410;2022-10-16T14:06:05;22.30;99.90
34542;DHT22;20784;51.332;12.410;2022-10-16T14:08:43;22.00;99.90
34542;DHT22;20784;51.332;12.410;2022-10-16T14:11:30;21.80;99.90
34542;DHT22;20784;51.332;12.410;2022-10-16T14:14:11;21.70;99.90
34542;DHT22;20784;51.332;12.410;2022-10-16T14:16:43;21.50;99.90
34542;DHT22;20784;51.332;12.410;2022-10-16T14:19:45;21.30;99.90
34542;DHT22;20784;51.332;12.410;2022-10-16T14:22:36;21.30;99.90
34542;DHT22;20784;51.332;12.410;2022-10-16T14:25:31;21.20;99.90
34542;DHT22;20784;51.332;12.410;2022-10-16T14:28:22;21.20;99.90
34542;DHT22;20784;51.332;12.410;2022-10-16T14:31:02;21.20;99.90
34542;DHT22;20784;51.332;12.410;2022-10-16T14:36:13;21.20;99.90
34542;DHT22;20784;51.332;12.410;2022-10-16T14:41:24;21.10;99.90
34542;DHT22;20784;51.332;12.410;2022-10-16T14:43:52;21.10;99.90
34542;DHT22;20784;51.332;12.410;2022-10-16T14:46:21;21.10;99.90
34542;DHT22;20784;51.332;12.410;2022-10-16T14:51:39;21.00;99.90
34542;DHT22;20784;51.332;12.410;2022-10-16T14:54:33;20.90;99.90
34542;DHT22;20784;51.332;12.410;2022-10-16T14:57:01;20.90;99.90
34542;DHT22;20784;51.332;12.410;2022-10-16T14:59:36;20.80;99.90
34542;DHT22;20784;51.332;12.410;2022-10-16T15:04:52;20.80;99.90
34542;DHT22;20784;51.332;12.410;2022-10-16T15:07:21;20.70;99.90
34542;DHT22;20784;51.332;12.410;2022-10-16T15:09:59;20.60;99.90
34542;DHT22;20784;51.332;12.410;2022-10-16T15:12:27;20.70;99.90
34542;DHT22;20784;51.332;12.410;2022-10-16T15:14:56;20.70;99.90
34542;DHT22;20784;51.332;12.410;2022-10-16T15:17:21;20.60;99.90
34542;DHT22;20784;51.332;12.410;2022-10-16T15:19:47;20.60;99.90
34542;DHT22;20784;51.332;12.410;2022-10-16T15:22:13;20.50;99.90
34542;DHT22;20784;51.332;12.410;2022-10-16T15:24:39;20.50;99.90
34542;DHT22;20784;51.332;12.410;2022-10-16T15:27:04;20.40;99.90
34542;DHT22;20784;51.332;12.410;2022-10-16T15:29:30;20.40;99.90
34542;DHT22;20784;51.332;12.410;2022-10-16T15:31:56;20.30;99.90
34542;DHT22;20784;51.332;12.410;2022-10-16T15:34:22;20.30;99.90
34542;DHT22;20784;51.332;12.410;2022-10-16T15:36:47;20.30;99.90
34542;DHT22;20784;51.332;12.410;2022-10-16T15:39:15;20.30;99.90
34542;DHT22;20784;51.332;12.410;2022-10-16T15:41:42;20.20;99.90
34542;DHT22;20784;51.332;12.410;2022-10-16T15:44:13;20.10;99.90
34542;DHT22;20784;51.332;12.410;2022-10-16T15:46:38;20.10;99.90
34542;DHT22;20784;51.332;12.410;2022-10-16T15:49:04;20.10;99.90
34542;DHT22;20784;51.332;12.410;2022-10-16T15:51:48;20.10;99.90
34542;DHT22;20784;51.332;12.410;2022-10-16T15:54:13;20.10;99.90
34542;DHT22;20784;51.332;12.410;2022-10-16T15:57:00;20.10;99.90
34542;DHT22;20784;51.332;12.410;2022-10-16T15:59:35;20.00;99.90
34542;DHT22;20784;51.332;12.410;2022-10-16T16:02:14;20.00;99.90
34542;DHT22;20784;51.332;12.410;2022-10-16T16:04:45;19.90;99.90
34542;DHT22;20784;51.332;12.410;2022-10-16T16:07:10;20.00;99.90
34542;DHT22;20784;51.332;12.410;2022-10-16T16:09:39;20.00;99.90
34542;DHT22;20784;51.332;12.410;2022-10-16T16:12:05;19.90;99.90
34542;DHT22;20784;51.332;12.410;2022-10-16T16:14:39;19.90;99.90
34542;DHT22;20784;51.332;12.410;2022-10-16T16:17:05;19.90;99.90
34542;DHT22;20784;51.332;12.410;2022-10-16T16:19:32;19.80;99.90
34542;DHT22;20784;51.332;12.410;2022-10-16T16:21:58;19.80;99.90
34542;DHT22;20784;51.332;12.410;2022-10-16T16:24:24;19.70;99.90
34542;DHT22;20784;51.332;12.410;2022-10-16T16:26:49;19.70;99.90
34542;DHT22;20784;51.332;12.410;2022-10-16T16:29:15;19.60;99.90
34542;DHT22;20784;51.332;12.410;2022-10-16T16:31:42;19.60;99.90
34542;DHT22;20784;51.332;12.410;2022-10-16T16:34:08;19.50;99.90
34542;DHT22;20784;51.332;12.410;2022-10-16T16:36:34;19.50;99.90
34542;DHT22;20784;51.332;12.410;2022-10-16T16:39:00;19.40;99.90
34542;DHT22;20784;51.332;12.410;2022-10-16T16:41:28;19.40;99.90
34542;DHT22;20784;51.332;12.410;2022-10-16T16:44:00;19.40;99.90
34542;DHT22;20784;51.332;12.410;2022-10-16T16:46:26;19.30;99.90
34542;DHT22;20784;51.332;12.410;2022-10-16T16:48:52;19.20;99.90
34542;DHT22;20784;51.332;12.410;2022-10-16T16:51:23;19.20;99.90
34542;DHT22;20784;51.332;12.410;2022-10-16T16:53:54;19.20;99.90
34542;DHT22;20784;51.332;12.410;2022-10-16T16:56:24;19.10;99.90
34542;DHT22;20784;51.332;12.410;2022-10-16T16:58:52;19.20;99.90
34542;DHT22;20784;51.332;12.410;2022-10-16T17:01:18;19.30;99.90
34542;DHT22;20784;51.332;12.410;2022-10-16T17:03:45;19.20;99.90
34542;DHT22;20784;51.332;12.410;2022-10-16T17:06:12;19.30;99.90
34542;DHT22;20784;51.332;12.410;2022-10-16T17:08:38;19.20;99.90
34542;DHT22;20784;51.332;12.410;2022-10-16T17:11:18;19.20;99.90
34542;DHT22;20784;51.332;12.410;2022-10-16T17:13:48;19.30;99.90
34542;DHT22;20784;51.332;12.410;2022-10-16T17:16:17;19.20;99.90
34542;DHT22;20784;51.332;12.410;2022-10-16T17:18:45;19.20;99.90
34542;DHT22;20784;51.332;12.410;2022-10-16T17:21:14;19.10;99.90
34542;DHT22;20784;51.332;12.410;2022-10-16T17:23:40;19.20;99.90
34542;DHT22;20784;51.332;12.410;2022-10-16T17:26:16;19.10;99.90
34542;DHT22;20784;51.332;12.410;2022-10-16T17:28:44;19.10;99.90
34542;DHT22;20784;51.332;12.410;2022-10-16T17:31:19;19.20;99.90
34542;DHT22;20784;51.332;12.410;2022-10-16T17:33:45;19.20;99.90
34542;DHT22;20784;51.332;12.410;2022-10-16T17:36:11;19.10;99.90
34542;DHT22;20784;51.332;12.410;2022-10-16T17:38:39;19.10;99.90
34542;DHT22;20784;51.332;12.410;2022-10-16T17:41:13;19.00;99.90
34542;DHT22;20784;51.332;12.410;2022-10-16T17:43:39;19.00;99.90
34542;DHT22;20784;51.332;12.410;2022-10-16T17:46:06;19.00;99.90
34542;DHT22;20784;51.332;12.410;2022-10-16T17:48:36;19.00;99.90
34542;DHT22;20784;51.332;12.410;2022-10-16T17:51:23;19.00;99.90